Latest METARs, TAFs and NOTAMs for MYNN


---------------------------------------------------------------------------
	(OBSERVATIONS)
MYNN 260800Z 08003KT 9999 FEW020 28/21 A3008=
MYNN 260700Z 08005KT 9999 FEW020 SCT040 29/21 A3008=
MYNN 260600Z 04004KT 9999 FEW020 SCT040 29/21 A3009=
---------------------------------------------------------------------------
	(TERMINAL AREA FORECAST)
MYNN 260435Z 2606/2706 08004KT 9999 VCSH SCT020 BECMG 2613/2615
    12010KT 9999 FEW016CB SCT020=
---------------------------------------------------------------------------
	(NOTAMS)


MYNN A0068/13 VOR Y RWY 14 FEEDER RTE FM MAJUR TO MUNIE NOT AVBL
    VOR Y RWY 14 FEEDER RTE FM MELON TO MUNIE NOT AVBL. SFC -
    UNL, 19 APR 19:55 2013 UNTIL PERM. CREATED: 19 APR 19:51
    2013

MYNN A0069/13 VOR Y RWY 09 FEEDER RTE FM MAJUR TO MUSSE NOT AVBL
    REMOVE PROCEDURE NOTE 'RADAR REQUIRED' FM APP CHART. SFC
    - UNL, 19 APR 19:55 2013 UNTIL PERM. CREATED: 19 APR 19:52
    2013

MYNN A0070/13 VOR Y RWY 32 FEEDER RTE FM PRUNE TO WELKS NOT AVBL
    REMOVE PROCEDURE NOTE 'RADAR REQUIRED' FM APP CHART. SFC
    - UNL, 19 APR 19:55 2013 UNTIL PERM. CREATED: 19 APR 19:54
    2013

MYNN A0078/17 ATS WILL ONLY ACCEPT NON-CLOSURE PLN'S TO MYSM
    MYCA MYCX MYCH MYCB MYAP MYCI MYCP MYMM MYRP MYLD MYLS DUE
    TO LACK OF COM. 03 APR 19:00 2017 UNTIL 31 JUL 23:59 2017.
    CREATED: 03 APR 18:54 2017

MYNN A0094/17 PAPI LGTS RWY 27 U/S. 12 MAY 15:00 2017 UNTIL 31
    AUG 23:59 2017 ESTIMATED. CREATED: 12 MAY 14:22 2017

MYNN A0107/17 CHECKLIST (A) SERIES YEAR=2010 0277 YEAR=2013 0068
    0069 0070 YEAR=2015 0108 YEAR=2016 0209 0221 0266 0291 0316
    YEAR=2017 0065 0067 0068 0069 0070 0071 0072 0073 0074 0075
    0076 0077 0078 0079 0091 0094 0102 0105 0106 LATEST PUBLICATIONS
    AIP AMDT 01/16 EFFECTIVE MAY 26, 2016 AIC 03/16. 06 JUN 16:00
    2017 UNTIL 30 JUN 23:59 2017. CREATED: 06 JUN 15:51 2017

MYNN A0108/15 INFORMATION LISTED IN AIC 3/2015 WITH THE EXCEPTION
    OF MYNN AND MYGF RNAV APCH PROC IN THE BAHAMAS ARE NOT AUTH
    DUE TO AIRSPACE CLASSIFICATION RESTRICTIONS. 01 JUN 18:00
    2015 UNTIL PERM. CREATED: 01 JUN 16:52 2015

MYNN A0316/16 WIE THE DEPARTMENT OF CIVIL AVIATION BANS ALL SAMSUNG
    GALAXY NOTE 7 PHONES FROM ACFT TRAVELLING IN THE BAHAMAS.
    DEVICES MAY NOT BE TRANSPORTED BY PASSENGERS OR CREW ON THEIR
    PERSON, IN CARRY-ON BAGGAGE, OR IN CHECKED BAGGAGE ON FLIGHTS
    TO, FROM, OR WITHIN THE COMMONWEALTH OF THE BAHAMAS AND CANNOT
    BE SHIPPED AS AIR CARGO. 20 OCT 15:30 2016 UNTIL PERM. CREATED:
    20 OCT 15:12 2016

MYNN B0009/17 CHECKLIST (B) SERIES YEAR=2016 0024 0028 LATEST
    PUBLICATIONS AIP AMDT 01/16 EFFECTIVE MAY 26, 2016 AIC 03/16.
    06 JUN 16:20 2017 UNTIL 30 JUN 23:59 2017. CREATED: 06 JUN
    16:20 2017

---------------------------------------------------------------------------